Dane County Regional Truax Field
KMSN : now visible

Airfield :











YOU CAN JOIN US ON...

 
LOGIN :

Register | Disclaimer

   EN    FR    IT 

 









Legend :    VFR   Marginal VFR   IFR   Intensive IFR   Very Intensive IFR
Visi :
Ceiling :
>= 8 km
>= 3000ft
5 to 8 km
1000 to 3000 ft
1500m to 5 km
500 to 1000 ft
800 to 1500m
200 to 500 ft
< 800m
< 200 ft
Symbols :   Thunderstorms  Fog  Heavy snow  Heavy precipitations  Wind > 20 kt






- Airport Elevation : 887 ft
- IATA code : MSN


KMSN - Dane County Regional Truax Field

CURRENT METAR :
  • 130553Z AUTO 29003KT 10SM OVC020 01/M02 A2996 RMK AO2 SLP153 T00111017 10039 20011 400391089 58002

EXPIRED METARs :
  • 130532Z AUTO 28003KT 10SM BKN020 01/M02 A2996 RMK AO2 T00111017
  • 130453Z 00000KT 10SM OVC032 03/M02 A2996 RMK AO2 SLP155 LAST T00281017
  • 130419Z 00000KT 10SM OVC033 03/M02 A2997 RMK AO2 T00331017
  • 130353Z 00000KT 10SM OVC027 03/M02 A2997 RMK AO2 SLP158 T00331022
  • 130321Z 00000KT 10SM BKN025 OVC033 03/M03 A2997 RMK AO2 T00331028

TAF KMSN
Valid from the 13 at 06:00 until the 14 at 06:00 UTC


130527Z 1306/1406 VRB04KT P6SM OVC015
FM130800 VRB03KT 5SM BR OVC006
FM131200 VRB03KT P6SM BKN010
FM131800 00000KT P6SM SCT027 BKN035
FM140300 00000KT P6SM BKN028



MET'MAP, your aeronautical weather chart ! - Copyright ORBIFLY December 2007 - Disclaimer

ORBIFLY MET'MAP TEAM :

Programming & Development : Alexandra Zaïnal
Concept & original design : Baudouin d'Aumeries
Assistance for programming : Marc-Olivier Méhu
Technical & hardware support : Manuel Goepfert

Contact : metmap@orbifly.com




SOURCES & CREDITS :

   NOAA       Earth
Advisory